sensor_id;sensor_type;location;lat;lon;timestamp;P1;durP1;ratioP1;P2;durP2;ratioP2
60372;SDS011;46216;52.220;5.134;2023-08-24T00:00:19;9.13;;;3.80;;
60372;SDS011;46216;52.220;5.134;2023-08-24T00:02:45;5.45;;;4.00;;
60372;SDS011;46216;52.220;5.134;2023-08-24T00:05:11;5.88;;;3.85;;
60372;SDS011;46216;52.220;5.134;2023-08-24T00:07:38;5.25;;;3.78;;
60372;SDS011;46216;52.220;5.134;2023-08-24T00:10:03;5.38;;;4.35;;
60372;SDS011;46216;52.220;5.134;2023-08-24T00:12:29;6.05;;;4.13;;
60372;SDS011;46216;52.220;5.134;2023-08-24T00:14:55;6.82;;;4.60;;
60372;SDS011;46216;52.220;5.134;2023-08-24T00:17:20;7.25;;;4.85;;
60372;SDS011;46216;52.220;5.134;2023-08-24T00:19:48;6.90;;;3.97;;
60372;SDS011;46216;52.220;5.134;2023-08-24T00:22:13;7.25;;;4.53;;
60372;SDS011;46216;52.220;5.134;2023-08-24T00:24:39;5.50;;;4.10;;
60372;SDS011;46216;52.220;5.134;2023-08-24T00:27:04;5.93;;;4.40;;
60372;SDS011;46216;52.220;5.134;2023-08-24T00:29:29;6.78;;;4.47;;
60372;SDS011;46216;52.220;5.134;2023-08-24T00:31:55;7.05;;;4.80;;
60372;SDS011;46216;52.220;5.134;2023-08-24T00:34:20;8.95;;;4.55;;
60372;SDS011;46216;52.220;5.134;2023-08-24T00:36:45;6.53;;;4.43;;
60372;SDS011;46216;52.220;5.134;2023-08-24T00:39:11;8.05;;;4.38;;
60372;SDS011;46216;52.220;5.134;2023-08-24T00:41:37;7.25;;;5.10;;
60372;SDS011;46216;52.220;5.134;2023-08-24T00:44:02;8.35;;;5.28;;
60372;SDS011;46216;52.220;5.134;2023-08-24T00:46:28;9.75;;;5.57;;
60372;SDS011;46216;52.220;5.134;2023-08-24T00:48:53;7.78;;;4.78;;
60372;SDS011;46216;52.220;5.134;2023-08-24T00:51:23;6.95;;;4.68;;
60372;SDS011;46216;52.220;5.134;2023-08-24T00:53:49;10.00;;;5.70;;
60372;SDS011;46216;52.220;5.134;2023-08-24T00:56:15;9.55;;;5.97;;
60372;SDS011;46216;52.220;5.134;2023-08-24T00:58:40;8.55;;;6.00;;
60372;SDS011;46216;52.220;5.134;2023-08-24T01:01:06;7.95;;;5.45;;
60372;SDS011;46216;52.220;5.134;2023-08-24T01:03:32;8.13;;;5.18;;
60372;SDS011;46216;52.220;5.134;2023-08-24T01:05:57;9.63;;;6.35;;
60372;SDS011;46216;52.220;5.134;2023-08-24T01:08:23;7.32;;;5.70;;
60372;SDS011;46216;52.220;5.134;2023-08-24T01:10:56;8.25;;;5.95;;
60372;SDS011;46216;52.220;5.134;2023-08-24T01:13:30;10.07;;;6.38;;
60372;SDS011;46216;52.220;5.134;2023-08-24T01:16:04;11.73;;;6.50;;
60372;SDS011;46216;52.220;5.134;2023-08-24T01:18:37;8.10;;;5.93;;
60372;SDS011;46216;52.220;5.134;2023-08-24T01:21:04;8.85;;;6.78;;
60372;SDS011;46216;52.220;5.134;2023-08-24T01:28:37;7.05;;;6.35;;
60372;SDS011;46216;52.220;5.134;2023-08-24T01:31:04;8.93;;;7.10;;
60372;SDS011;46216;52.220;5.134;2023-08-24T01:33:30;9.40;;;6.45;;
60372;SDS011;46216;52.220;5.134;2023-08-24T01:35:56;11.98;;;7.15;;
60372;SDS011;46216;52.220;5.134;2023-08-24T01:38:21;9.57;;;6.20;;
60372;SDS011;46216;52.220;5.134;2023-08-24T01:43:29;10.25;;;7.07;;
60372;SDS011;46216;52.220;5.134;2023-08-24T01:45:58;8.77;;;6.78;;
60372;SDS011;46216;52.220;5.134;2023-08-24T01:48:25;8.80;;;7.00;;
60372;SDS011;46216;52.220;5.134;2023-08-24T01:50:51;8.50;;;7.10;;
60372;SDS011;46216;52.220;5.134;2023-08-24T01:53:17;9.82;;;7.00;;
60372;SDS011;46216;52.220;5.134;2023-08-24T01:55:44;13.60;;;8.07;;
60372;SDS011;46216;52.220;5.134;2023-08-24T01:58:10;12.05;;;7.75;;
60372;SDS011;46216;52.220;5.134;2023-08-24T02:00:36;10.35;;;7.60;;
60372;SDS011;46216;52.220;5.134;2023-08-24T02:03:01;10.23;;;7.40;;
60372;SDS011;46216;52.220;5.134;2023-08-24T02:05:26;8.88;;;7.97;;
60372;SDS011;46216;52.220;5.134;2023-08-24T02:07:55;12.05;;;8.25;;
60372;SDS011;46216;52.220;5.134;2023-08-24T02:10:20;9.43;;;8.00;;
60372;SDS011;46216;52.220;5.134;2023-08-24T02:12:46;12.93;;;8.30;;
60372;SDS011;46216;52.220;5.134;2023-08-24T02:15:11;9.25;;;8.18;;
60372;SDS011;46216;52.220;5.134;2023-08-24T02:17:36;11.95;;;7.78;;
60372;SDS011;46216;52.220;5.134;2023-08-24T02:20:02;11.10;;;8.10;;
60372;SDS011;46216;52.220;5.134;2023-08-24T02:22:28;10.77;;;8.27;;
60372;SDS011;46216;52.220;5.134;2023-08-24T02:24:55;13.25;;;8.40;;
60372;SDS011;46216;52.220;5.134;2023-08-24T02:27:20;9.13;;;8.18;;
60372;SDS011;46216;52.220;5.134;2023-08-24T02:29:46;11.48;;;8.23;;
60372;SDS011;46216;52.220;5.134;2023-08-24T02:32:11;10.48;;;8.15;;
60372;SDS011;46216;52.220;5.134;2023-08-24T02:34:36;9.77;;;8.40;;
60372;SDS011;46216;52.220;5.134;2023-08-24T02:37:02;12.65;;;8.27;;
60372;SDS011;46216;52.220;5.134;2023-08-24T02:39:28;9.60;;;8.20;;
60372;SDS011;46216;52.220;5.134;2023-08-24T02:41:53;12.55;;;8.05;;
60372;SDS011;46216;52.220;5.134;2023-08-24T02:44:19;8.57;;;7.22;;
60372;SDS011;46216;52.220;5.134;2023-08-24T02:46:44;8.65;;;7.70;;
60372;SDS011;46216;52.220;5.134;2023-08-24T02:49:09;9.07;;;8.00;;
60372;SDS011;46216;52.220;5.134;2023-08-24T02:51:35;10.45;;;8.02;;
60372;SDS011;46216;52.220;5.134;2023-08-24T02:54:00;10.82;;;8.60;;
60372;SDS011;46216;52.220;5.134;2023-08-24T02:56:26;10.80;;;8.15;;
60372;SDS011;46216;52.220;5.134;2023-08-24T02:58:51;11.43;;;8.48;;
60372;SDS011;46216;52.220;5.134;2023-08-24T03:01:17;10.43;;;7.80;;
60372;SDS011;46216;52.220;5.134;2023-08-24T03:03:43;10.77;;;8.40;;
60372;SDS011;46216;52.220;5.134;2023-08-24T03:06:08;10.10;;;8.43;;
60372;SDS011;46216;52.220;5.134;2023-08-24T03:08:34;9.10;;;8.07;;
60372;SDS011;46216;52.220;5.134;2023-08-24T03:11:00;10.20;;;8.10;;
60372;SDS011;46216;52.220;5.134;2023-08-24T03:13:26;15.10;;;9.13;;
60372;SDS011;46216;52.220;5.134;2023-08-24T03:15:53;10.98;;;8.82;;
60372;SDS011;46216;52.220;5.134;2023-08-24T03:18:18;11.63;;;8.90;;
60372;SDS011;46216;52.220;5.134;2023-08-24T03:20:44;10.48;;;8.40;;
60372;SDS011;46216;52.220;5.134;2023-08-24T03:23:11;11.65;;;8.68;;
60372;SDS011;46216;52.220;5.134;2023-08-24T03:25:37;11.50;;;8.85;;
60372;SDS011;46216;52.220;5.134;2023-08-24T03:28:04;10.80;;;8.63;;
60372;SDS011;46216;52.220;5.134;2023-08-24T03:30:30;11.93;;;8.93;;
60372;SDS011;46216;52.220;5.134;2023-08-24T03:32:55;14.32;;;9.23;;
60372;SDS011;46216;52.220;5.134;2023-08-24T03:35:20;11.43;;;8.70;;
60372;SDS011;46216;52.220;5.134;2023-08-24T03:37:46;11.95;;;8.95;;
60372;SDS011;46216;52.220;5.134;2023-08-24T03:40:11;10.88;;;8.88;;
60372;SDS011;46216;52.220;5.134;2023-08-24T03:42:37;11.23;;;9.38;;
60372;SDS011;46216;52.220;5.134;2023-08-24T03:45:06;12.57;;;8.63;;
60372;SDS011;46216;52.220;5.134;2023-08-24T03:47:31;11.75;;;9.50;;
60372;SDS011;46216;52.220;5.134;2023-08-24T03:49:57;10.80;;;9.52;;
60372;SDS011;46216;52.220;5.134;2023-08-24T03:52:22;12.13;;;9.18;;
60372;SDS011;46216;52.220;5.134;2023-08-24T03:54:50;13.38;;;9.23;;
60372;SDS011;46216;52.220;5.134;2023-08-24T03:57:15;13.27;;;9.80;;
60372;SDS011;46216;52.220;5.134;2023-08-24T03:59:41;11.50;;;9.05;;
60372;SDS011;46216;52.220;5.134;2023-08-24T04:02:06;12.48;;;9.65;;
60372;SDS011;46216;52.220;5.134;2023-08-24T04:04:31;13.10;;;9.43;;
60372;SDS011;46216;52.220;5.134;2023-08-24T04:06:57;12.18;;;9.60;;
60372;SDS011;46216;52.220;5.134;2023-08-24T04:09:22;11.50;;;9.75;;
60372;SDS011;46216;52.220;5.134;2023-08-24T04:11:47;12.70;;;10.40;;
60372;SDS011;46216;52.220;5.134;2023-08-24T04:14:13;11.02;;;9.25;;
60372;SDS011;46216;52.220;5.134;2023-08-24T04:16:39;12.30;;;10.10;;
60372;SDS011;46216;52.220;5.134;2023-08-24T04:19:04;11.25;;;9.60;;
60372;SDS011;46216;52.220;5.134;2023-08-24T04:21:30;15.00;;;9.90;;
60372;SDS011;46216;52.220;5.134;2023-08-24T04:23:55;12.10;;;9.90;;
60372;SDS011;46216;52.220;5.134;2023-08-24T04:26:21;12.25;;;10.13;;
60372;SDS011;46216;52.220;5.134;2023-08-24T04:28:46;14.95;;;10.00;;
60372;SDS011;46216;52.220;5.134;2023-08-24T04:31:11;12.95;;;9.77;;
60372;SDS011;46216;52.220;5.134;2023-08-24T04:33:37;11.52;;;9.40;;
60372;SDS011;46216;52.220;5.134;2023-08-24T04:36:02;13.43;;;9.77;;
60372;SDS011;46216;52.220;5.134;2023-08-24T04:38:32;13.02;;;9.73;;
60372;SDS011;46216;52.220;5.134;2023-08-24T04:40:57;12.40;;;9.82;;
60372;SDS011;46216;52.220;5.134;2023-08-24T04:43:23;14.23;;;9.75;;
60372;SDS011;46216;52.220;5.134;2023-08-24T04:45:49;12.05;;;10.05;;
60372;SDS011;46216;52.220;5.134;2023-08-24T04:48:21;10.95;;;9.85;;
60372;SDS011;46216;52.220;5.134;2023-08-24T04:50:47;14.48;;;10.40;;
60372;SDS011;46216;52.220;5.134;2023-08-24T04:53:14;15.43;;;10.80;;
60372;SDS011;46216;52.220;5.134;2023-08-24T04:55:41;12.57;;;10.50;;
60372;SDS011;46216;52.220;5.134;2023-08-24T04:58:10;13.02;;;10.35;;
60372;SDS011;46216;52.220;5.134;2023-08-24T05:00:37;14.95;;;9.95;;
60372;SDS011;46216;52.220;5.134;2023-08-24T05:03:03;14.55;;;10.02;;
60372;SDS011;46216;52.220;5.134;2023-08-24T05:05:30;14.60;;;9.80;;
60372;SDS011;46216;52.220;5.134;2023-08-24T05:08:00;14.23;;;10.30;;
60372;SDS011;46216;52.220;5.134;2023-08-24T05:10:29;12.18;;;9.82;;
60372;SDS011;46216;52.220;5.134;2023-08-24T05:12:56;13.23;;;9.82;;
60372;SDS011;46216;52.220;5.134;2023-08-24T05:15:22;13.85;;;9.63;;
60372;SDS011;46216;52.220;5.134;2023-08-24T05:17:47;12.27;;;10.30;;
60372;SDS011;46216;52.220;5.134;2023-08-24T05:20:13;12.65;;;10.00;;
60372;SDS011;46216;52.220;5.134;2023-08-24T05:22:38;13.27;;;10.02;;
60372;SDS011;46216;52.220;5.134;2023-08-24T05:25:04;12.45;;;10.15;;
60372;SDS011;46216;52.220;5.134;2023-08-24T05:27:30;10.75;;;9.48;;
60372;SDS011;46216;52.220;5.134;2023-08-24T05:29:56;13.77;;;10.48;;
60372;SDS011;46216;52.220;5.134;2023-08-24T05:32:22;14.10;;;10.77;;
60372;SDS011;46216;52.220;5.134;2023-08-24T05:34:47;11.52;;;9.73;;
60372;SDS011;46216;52.220;5.134;2023-08-24T05:37:12;12.27;;;9.73;;
60372;SDS011;46216;52.220;5.134;2023-08-24T05:39:38;11.70;;;9.50;;
60372;SDS011;46216;52.220;5.134;2023-08-24T05:42:04;14.15;;;9.63;;
60372;SDS011;46216;52.220;5.134;2023-08-24T05:44:30;13.40;;;8.98;;
60372;SDS011;46216;52.220;5.134;2023-08-24T05:46:55;13.23;;;9.95;;
60372;SDS011;46216;52.220;5.134;2023-08-24T05:49:20;13.05;;;9.70;;
60372;SDS011;46216;52.220;5.134;2023-08-24T05:51:46;12.88;;;9.52;;
60372;SDS011;46216;52.220;5.134;2023-08-24T05:54:11;10.70;;;9.52;;
60372;SDS011;46216;52.220;5.134;2023-08-24T05:56:38;15.38;;;10.18;;
60372;SDS011;46216;52.220;5.134;2023-08-24T05:59:04;11.30;;;9.57;;
60372;SDS011;46216;52.220;5.134;2023-08-24T06:01:29;12.07;;;8.93;;
60372;SDS011;46216;52.220;5.134;2023-08-24T06:03:54;14.30;;;9.10;;
60372;SDS011;46216;52.220;5.134;2023-08-24T06:06:20;11.27;;;9.25;;
60372;SDS011;46216;52.220;5.134;2023-08-24T06:08:45;11.63;;;9.27;;
60372;SDS011;46216;52.220;5.134;2023-08-24T06:11:11;13.05;;;8.80;;
60372;SDS011;46216;52.220;5.134;2023-08-24T06:13:36;11.63;;;9.15;;
60372;SDS011;46216;52.220;5.134;2023-08-24T06:16:01;12.00;;;8.95;;
60372;SDS011;46216;52.220;5.134;2023-08-24T06:18:27;14.48;;;9.20;;
60372;SDS011;46216;52.220;5.134;2023-08-24T06:20:53;10.57;;;9.25;;
60372;SDS011;46216;52.220;5.134;2023-08-24T06:23:19;11.43;;;9.45;;
60372;SDS011;46216;52.220;5.134;2023-08-24T06:25:44;10.90;;;9.13;;
60372;SDS011;46216;52.220;5.134;2023-08-24T06:28:10;11.25;;;9.05;;
60372;SDS011;46216;52.220;5.134;2023-08-24T06:30:37;13.43;;;8.63;;
60372;SDS011;46216;52.220;5.134;2023-08-24T06:33:04;13.48;;;9.02;;
60372;SDS011;46216;52.220;5.134;2023-08-24T06:35:30;11.18;;;9.23;;
60372;SDS011;46216;52.220;5.134;2023-08-24T06:37:55;13.35;;;8.93;;
60372;SDS011;46216;52.220;5.134;2023-08-24T06:40:21;10.65;;;9.00;;
60372;SDS011;46216;52.220;5.134;2023-08-24T06:42:46;14.35;;;9.20;;
60372;SDS011;46216;52.220;5.134;2023-08-24T06:45:11;13.55;;;9.70;;
60372;SDS011;46216;52.220;5.134;2023-08-24T06:47:37;12.15;;;9.15;;
60372;SDS011;46216;52.220;5.134;2023-08-24T06:50:04;14.00;;;9.90;;
60372;SDS011;46216;52.220;5.134;2023-08-24T06:52:30;12.45;;;9.52;;
60372;SDS011;46216;52.220;5.134;2023-08-24T06:54:55;14.38;;;9.73;;
60372;SDS011;46216;52.220;5.134;2023-08-24T06:57:21;13.57;;;9.27;;
60372;SDS011;46216;52.220;5.134;2023-08-24T06:59:47;12.90;;;9.60;;
60372;SDS011;46216;52.220;5.134;2023-08-24T07:02:13;13.75;;;9.07;;
60372;SDS011;46216;52.220;5.134;2023-08-24T07:04:38;12.15;;;9.52;;
60372;SDS011;46216;52.220;5.134;2023-08-24T07:07:05;12.98;;;9.73;;
60372;SDS011;46216;52.220;5.134;2023-08-24T07:09:31;10.55;;;9.30;;
60372;SDS011;46216;52.220;5.134;2023-08-24T07:11:57;17.10;;;10.23;;
60372;SDS011;46216;52.220;5.134;2023-08-24T07:14:22;11.45;;;10.25;;
60372;SDS011;46216;52.220;5.134;2023-08-24T07:16:48;14.20;;;10.07;;
60372;SDS011;46216;52.220;5.134;2023-08-24T07:19:13;13.25;;;10.55;;
60372;SDS011;46216;52.220;5.134;2023-08-24T07:21:38;14.27;;;10.43;;
60372;SDS011;46216;52.220;5.134;2023-08-24T07:24:04;12.30;;;9.63;;
60372;SDS011;46216;52.220;5.134;2023-08-24T07:26:33;17.92;;;10.57;;
60372;SDS011;46216;52.220;5.134;2023-08-24T07:28:59;13.13;;;9.80;;
60372;SDS011;46216;52.220;5.134;2023-08-24T07:31:24;11.05;;;9.75;;
60372;SDS011;46216;52.220;5.134;2023-08-24T07:33:50;13.05;;;10.48;;
60372;SDS011;46216;52.220;5.134;2023-08-24T07:36:15;15.70;;;10.30;;
60372;SDS011;46216;52.220;5.134;2023-08-24T07:38:41;15.85;;;11.15;;
60372;SDS011;46216;52.220;5.134;2023-08-24T07:41:07;13.82;;;10.43;;
60372;SDS011;46216;52.220;5.134;2023-08-24T07:43:34;12.57;;;10.25;;
60372;SDS011;46216;52.220;5.134;2023-08-24T07:45:59;12.15;;;10.23;;
60372;SDS011;46216;52.220;5.134;2023-08-24T07:48:25;11.43;;;9.80;;
60372;SDS011;46216;52.220;5.134;2023-08-24T07:50:51;13.55;;;9.90;;
60372;SDS011;46216;52.220;5.134;2023-08-24T07:53:19;11.88;;;9.95;;
60372;SDS011;46216;52.220;5.134;2023-08-24T07:55:47;11.43;;;9.63;;
60372;SDS011;46216;52.220;5.134;2023-08-24T07:58:13;10.40;;;9.35;;
60372;SDS011;46216;52.220;5.134;2023-08-24T08:00:38;10.80;;;9.50;;
60372;SDS011;46216;52.220;5.134;2023-08-24T08:03:04;14.05;;;9.13;;
60372;SDS011;46216;52.220;5.134;2023-08-24T08:05:29;12.00;;;9.55;;
60372;SDS011;46216;52.220;5.134;2023-08-24T08:07:55;11.27;;;8.43;;
60372;SDS011;46216;52.220;5.134;2023-08-24T08:10:20;10.52;;;8.10;;
60372;SDS011;46216;52.220;5.134;2023-08-24T08:12:46;9.93;;;8.77;;
60372;SDS011;46216;52.220;5.134;2023-08-24T08:15:12;11.32;;;8.70;;
60372;SDS011;46216;52.220;5.134;2023-08-24T08:17:37;11.65;;;8.75;;
60372;SDS011;46216;52.220;5.134;2023-08-24T08:20:03;12.85;;;8.13;;
60372;SDS011;46216;52.220;5.134;2023-08-24T08:22:28;9.65;;;8.02;;
60372;SDS011;46216;52.220;5.134;2023-08-24T08:24:54;10.98;;;7.90;;
60372;SDS011;46216;52.220;5.134;2023-08-24T08:27:21;11.68;;;7.80;;
60372;SDS011;46216;52.220;5.134;2023-08-24T08:29:47;8.95;;;7.22;;
60372;SDS011;46216;52.220;5.134;2023-08-24T08:32:13;9.68;;;7.30;;
60372;SDS011;46216;52.220;5.134;2023-08-24T08:34:38;8.40;;;7.00;;
60372;SDS011;46216;52.220;5.134;2023-08-24T08:37:03;10.50;;;7.35;;
60372;SDS011;46216;52.220;5.134;2023-08-24T08:39:29;8.20;;;6.80;;
60372;SDS011;46216;52.220;5.134;2023-08-24T08:41:55;11.15;;;7.30;;
60372;SDS011;46216;52.220;5.134;2023-08-24T08:44:20;10.38;;;7.18;;
60372;SDS011;46216;52.220;5.134;2023-08-24T08:46:48;10.30;;;6.97;;
60372;SDS011;46216;52.220;5.134;2023-08-24T08:49:15;11.25;;;6.65;;
60372;SDS011;46216;52.220;5.134;2023-08-24T08:51:41;9.75;;;6.63;;
60372;SDS011;46216;52.220;5.134;2023-08-24T08:54:06;9.57;;;6.25;;
60372;SDS011;46216;52.220;5.134;2023-08-24T08:56:32;9.75;;;6.72;;
60372;SDS011;46216;52.220;5.134;2023-08-24T08:59:01;10.10;;;6.43;;
60372;SDS011;46216;52.220;5.134;2023-08-24T09:01:29;9.10;;;6.63;;
60372;SDS011;46216;52.220;5.134;2023-08-24T09:03:55;7.85;;;6.07;;
60372;SDS011;46216;52.220;5.134;2023-08-24T09:06:22;12.68;;;6.70;;
60372;SDS011;46216;52.220;5.134;2023-08-24T09:08:48;9.68;;;6.13;;
60372;SDS011;46216;52.220;5.134;2023-08-24T09:11:15;8.68;;;6.28;;
60372;SDS011;46216;52.220;5.134;2023-08-24T09:13:42;9.63;;;6.30;;
60372;SDS011;46216;52.220;5.134;2023-08-24T09:16:08;8.65;;;5.72;;
60372;SDS011;46216;52.220;5.134;2023-08-24T09:18:39;9.23;;;5.93;;
60372;SDS011;46216;52.220;5.134;2023-08-24T09:21:11;7.65;;;5.43;;
60372;SDS011;46216;52.220;5.134;2023-08-24T09:23:42;9.07;;;5.90;;
60372;SDS011;46216;52.220;5.134;2023-08-24T09:26:26;7.97;;;5.38;;
60372;SDS011;46216;52.220;5.134;2023-08-24T09:28:55;6.57;;;5.25;;
60372;SDS011;46216;52.220;5.134;2023-08-24T09:31:22;9.55;;;5.47;;
60372;SDS011;46216;52.220;5.134;2023-08-24T09:34:01;9.60;;;5.55;;
60372;SDS011;46216;52.220;5.134;2023-08-24T09:36:28;7.50;;;5.05;;
60372;SDS011;46216;52.220;5.134;2023-08-24T09:38:56;5.85;;;5.25;;
60372;SDS011;46216;52.220;5.134;2023-08-24T09:41:24;7.63;;;5.07;;
60372;SDS011;46216;52.220;5.134;2023-08-24T09:43:49;8.02;;;5.25;;
60372;SDS011;46216;52.220;5.134;2023-08-24T09:46:18;7.10;;;4.75;;
60372;SDS011;46216;52.220;5.134;2023-08-24T09:48:44;7.53;;;5.00;;
60372;SDS011;46216;52.220;5.134;2023-08-24T09:51:09;8.70;;;5.60;;
60372;SDS011;46216;52.220;5.134;2023-08-24T09:53:36;5.63;;;4.60;;
60372;SDS011;46216;52.220;5.134;2023-08-24T09:56:05;7.75;;;4.90;;
60372;SDS011;46216;52.220;5.134;2023-08-24T09:58:34;8.52;;;5.10;;
60372;SDS011;46216;52.220;5.134;2023-08-24T10:00:59;8.02;;;4.50;;
60372;SDS011;46216;52.220;5.134;2023-08-24T10:03:27;8.45;;;5.00;;
60372;SDS011;46216;52.220;5.134;2023-08-24T10:05:56;8.48;;;4.70;;
60372;SDS011;46216;52.220;5.134;2023-08-24T10:08:36;6.75;;;4.70;;
60372;SDS011;46216;52.220;5.134;2023-08-24T10:11:04;8.15;;;4.88;;
60372;SDS011;46216;52.220;5.134;2023-08-24T10:13:36;7.50;;;4.90;;
60372;SDS011;46216;52.220;5.134;2023-08-24T10:16:06;7.43;;;4.85;;
60372;SDS011;46216;52.220;5.134;2023-08-24T10:18:33;6.20;;;4.50;;
60372;SDS011;46216;52.220;5.134;2023-08-24T10:21:02;6.63;;;4.43;;
60372;SDS011;46216;52.220;5.134;2023-08-24T10:23:29;6.68;;;4.50;;
60372;SDS011;46216;52.220;5.134;2023-08-24T10:25:55;8.00;;;5.07;;
60372;SDS011;46216;52.220;5.134;2023-08-24T10:28:20;5.30;;;4.18;;
60372;SDS011;46216;52.220;5.134;2023-08-24T10:30:50;10.80;;;5.10;;
60372;SDS011;46216;52.220;5.134;2023-08-24T10:33:16;7.20;;;4.10;;
60372;SDS011;46216;52.220;5.134;2023-08-24T10:35:43;6.70;;;4.60;;
60372;SDS011;46216;52.220;5.134;2023-08-24T10:38:22;7.07;;;4.55;;
60372;SDS011;46216;52.220;5.134;2023-08-24T10:40:51;5.63;;;4.50;;
60372;SDS011;46216;52.220;5.134;2023-08-24T10:43:17;9.07;;;5.55;;
60372;SDS011;46216;52.220;5.134;2023-08-24T10:48:31;8.00;;;4.97;;
60372;SDS011;46216;52.220;5.134;2023-08-24T10:53:39;7.70;;;4.75;;
60372;SDS011;46216;52.220;5.134;2023-08-24T10:56:12;9.27;;;5.55;;
60372;SDS011;46216;52.220;5.134;2023-08-24T10:58:42;6.15;;;5.25;;
60372;SDS011;46216;52.220;5.134;2023-08-24T11:01:19;7.70;;;5.88;;
60372;SDS011;46216;52.220;5.134;2023-08-24T11:03:50;6.93;;;5.50;;
60372;SDS011;46216;52.220;5.134;2023-08-24T11:06:20;9.18;;;5.90;;
60372;SDS011;46216;52.220;5.134;2023-08-24T11:08:48;6.78;;;5.90;;
60372;SDS011;46216;52.220;5.134;2023-08-24T11:11:21;8.70;;;6.30;;
60372;SDS011;46216;52.220;5.134;2023-08-24T11:16:47;7.30;;;5.90;;
60372;SDS011;46216;52.220;5.134;2023-08-24T11:19:14;8.23;;;5.93;;
60372;SDS011;46216;52.220;5.134;2023-08-24T11:21:41;8.55;;;6.13;;
60372;SDS011;46216;52.220;5.134;2023-08-24T11:24:08;13.18;;;6.70;;
60372;SDS011;46216;52.220;5.134;2023-08-24T11:26:41;7.97;;;6.10;;
60372;SDS011;46216;52.220;5.134;2023-08-24T11:29:11;9.00;;;5.80;;
60372;SDS011;46216;52.220;5.134;2023-08-24T11:31:36;8.52;;;5.70;;
60372;SDS011;46216;52.220;5.134;2023-08-24T11:34:03;7.30;;;5.78;;
60372;SDS011;46216;52.220;5.134;2023-08-24T11:36:29;9.00;;;6.00;;
60372;SDS011;46216;52.220;5.134;2023-08-24T11:38:57;7.25;;;6.53;;
60372;SDS011;46216;52.220;5.134;2023-08-24T11:41:23;7.93;;;6.35;;
60372;SDS011;46216;52.220;5.134;2023-08-24T11:43:49;8.38;;;5.97;;
60372;SDS011;46216;52.220;5.134;2023-08-24T11:46:24;8.27;;;6.32;;
60372;SDS011;46216;52.220;5.134;2023-08-24T11:48:49;9.95;;;7.13;;
60372;SDS011;46216;52.220;5.134;2023-08-24T11:51:16;12.00;;;10.68;;
60372;SDS011;46216;52.220;5.134;2023-08-24T11:53:42;13.85;;;12.45;;
60372;SDS011;46216;52.220;5.134;2023-08-24T11:56:09;16.33;;;14.10;;
60372;SDS011;46216;52.220;5.134;2023-08-24T11:58:38;15.85;;;14.23;;
60372;SDS011;46216;52.220;5.134;2023-08-24T12:01:05;15.77;;;14.13;;
60372;SDS011;46216;52.220;5.134;2023-08-24T12:03:31;16.77;;;14.52;;
60372;SDS011;46216;52.220;5.134;2023-08-24T12:06:02;15.38;;;13.77;;
60372;SDS011;46216;52.220;5.134;2023-08-24T12:08:40;15.82;;;14.20;;
60372;SDS011;46216;52.220;5.134;2023-08-24T12:11:10;16.10;;;14.48;;
60372;SDS011;46216;52.220;5.134;2023-08-24T12:13:37;18.25;;;14.60;;
60372;SDS011;46216;52.220;5.134;2023-08-24T12:16:02;15.73;;;14.05;;
60372;SDS011;46216;52.220;5.134;2023-08-24T12:18:29;17.27;;;14.65;;
60372;SDS011;46216;52.220;5.134;2023-08-24T12:20:56;16.45;;;14.77;;
60372;SDS011;46216;52.220;5.134;2023-08-24T12:23:26;16.42;;;14.82;;
60372;SDS011;46216;52.220;5.134;2023-08-24T12:25:53;15.93;;;14.27;;
60372;SDS011;46216;52.220;5.134;2023-08-24T12:28:19;14.73;;;13.02;;
60372;SDS011;46216;52.220;5.134;2023-08-24T12:30:50;16.02;;;14.05;;
60372;SDS011;46216;52.220;5.134;2023-08-24T12:33:29;21.60;;;15.18;;
60372;SDS011;46216;52.220;5.134;2023-08-24T12:35:56;16.73;;;14.40;;
60372;SDS011;46216;52.220;5.134;2023-08-24T12:38:23;19.08;;;14.00;;
60372;SDS011;46216;52.220;5.134;2023-08-24T12:40:49;17.77;;;13.65;;
60372;SDS011;46216;52.220;5.134;2023-08-24T12:43:15;17.27;;;14.18;;
60372;SDS011;46216;52.220;5.134;2023-08-24T12:45:40;16.50;;;14.73;;
60372;SDS011;46216;52.220;5.134;2023-08-24T12:48:06;18.38;;;14.02;;
60372;SDS011;46216;52.220;5.134;2023-08-24T12:50:35;16.10;;;13.20;;
60372;SDS011;46216;52.220;5.134;2023-08-24T12:53:01;15.48;;;13.27;;
60372;SDS011;46216;52.220;5.134;2023-08-24T12:55:28;16.23;;;14.18;;
60372;SDS011;46216;52.220;5.134;2023-08-24T12:57:54;14.20;;;12.70;;
60372;SDS011;46216;52.220;5.134;2023-08-24T13:00:19;15.75;;;12.93;;
60372;SDS011;46216;52.220;5.134;2023-08-24T13:02:45;17.52;;;14.48;;
60372;SDS011;46216;52.220;5.134;2023-08-24T13:05:14;16.33;;;13.27;;
60372;SDS011;46216;52.220;5.134;2023-08-24T13:07:39;16.42;;;12.95;;
60372;SDS011;46216;52.220;5.134;2023-08-24T13:10:05;15.00;;;13.40;;
60372;SDS011;46216;52.220;5.134;2023-08-24T13:12:31;14.52;;;12.68;;
60372;SDS011;46216;52.220;5.134;2023-08-24T13:14:57;14.57;;;11.88;;
60372;SDS011;46216;52.220;5.134;2023-08-24T13:17:23;15.15;;;13.23;;
60372;SDS011;46216;52.220;5.134;2023-08-24T13:19:48;16.10;;;12.73;;
60372;SDS011;46216;52.220;5.134;2023-08-24T13:22:16;14.18;;;12.65;;
60372;SDS011;46216;52.220;5.134;2023-08-24T13:24:42;16.02;;;12.38;;
60372;SDS011;46216;52.220;5.134;2023-08-24T13:27:11;15.60;;;13.20;;
60372;SDS011;46216;52.220;5.134;2023-08-24T13:29:37;14.35;;;12.07;;
60372;SDS011;46216;52.220;5.134;2023-08-24T13:32:03;14.10;;;11.98;;
60372;SDS011;46216;52.220;5.134;2023-08-24T13:34:29;16.02;;;12.48;;
60372;SDS011;46216;52.220;5.134;2023-08-24T13:36:56;13.60;;;12.23;;
60372;SDS011;46216;52.220;5.134;2023-08-24T13:39:28;14.05;;;12.60;;
60372;SDS011;46216;52.220;5.134;2023-08-24T13:41:54;13.02;;;11.73;;
60372;SDS011;46216;52.220;5.134;2023-08-24T13:44:19;17.25;;;13.57;;
60372;SDS011;46216;52.220;5.134;2023-08-24T13:46:45;15.18;;;12.50;;
60372;SDS011;46216;52.220;5.134;2023-08-24T13:49:10;17.30;;;14.05;;
60372;SDS011;46216;52.220;5.134;2023-08-24T13:51:35;14.75;;;12.38;;
60372;SDS011;46216;52.220;5.134;2023-08-24T13:54:02;14.77;;;13.23;;
60372;SDS011;46216;52.220;5.134;2023-08-24T13:56:27;14.98;;;12.95;;
60372;SDS011;46216;52.220;5.134;2023-08-24T13:58:53;15.73;;;13.02;;
60372;SDS011;46216;52.220;5.134;2023-08-24T14:01:18;13.82;;;11.93;;
60372;SDS011;46216;52.220;5.134;2023-08-24T14:03:43;12.57;;;11.30;;
60372;SDS011;46216;52.220;5.134;2023-08-24T14:06:09;15.77;;;13.27;;
60372;SDS011;46216;52.220;5.134;2023-08-24T14:08:36;15.43;;;13.25;;
60372;SDS011;46216;52.220;5.134;2023-08-24T14:11:01;17.05;;;12.68;;
60372;SDS011;46216;52.220;5.134;2023-08-24T14:13:31;13.70;;;12.25;;
60372;SDS011;46216;52.220;5.134;2023-08-24T14:15:56;15.48;;;12.52;;
60372;SDS011;46216;52.220;5.134;2023-08-24T14:18:21;13.60;;;12.30;;
60372;SDS011;46216;52.220;5.134;2023-08-24T14:20:47;15.10;;;12.70;;
60372;SDS011;46216;52.220;5.134;2023-08-24T14:23:13;16.42;;;12.43;;
60372;SDS011;46216;52.220;5.134;2023-08-24T14:25:38;14.45;;;12.95;;
60372;SDS011;46216;52.220;5.134;2023-08-24T14:28:04;16.88;;;13.63;;
60372;SDS011;46216;52.220;5.134;2023-08-24T14:30:29;15.10;;;13.52;;
60372;SDS011;46216;52.220;5.134;2023-08-24T14:32:55;15.20;;;13.70;;
60372;SDS011;46216;52.220;5.134;2023-08-24T14:35:20;14.93;;;13.43;;
60372;SDS011;46216;52.220;5.134;2023-08-24T14:37:45;15.90;;;14.30;;
60372;SDS011;46216;52.220;5.134;2023-08-24T14:40:11;17.15;;;14.32;;
60372;SDS011;46216;52.220;5.134;2023-08-24T14:42:36;15.23;;;13.63;;
60372;SDS011;46216;52.220;5.134;2023-08-24T14:45:02;15.32;;;13.38;;
60372;SDS011;46216;52.220;5.134;2023-08-24T14:47:27;14.13;;;12.65;;